sensor_id;sensor_type;location;lat;lon;timestamp;temperature;humidity
14172;DHT22;7165;52.388;4.928;2023-05-29T00:01:24;11.00;99.90
14172;DHT22;7165;52.388;4.928;2023-05-29T00:03:51;11.00;99.90
14172;DHT22;7165;52.388;4.928;2023-05-29T00:06:18;11.00;99.90
14172;DHT22;7165;52.388;4.928;2023-05-29T00:08:45;11.00;99.90
14172;DHT22;7165;52.388;4.928;2023-05-29T00:11:13;11.00;99.90
14172;DHT22;7165;52.388;4.928;2023-05-29T00:13:40;11.00;99.90
14172;DHT22;7165;52.388;4.928;2023-05-29T00:16:06;11.00;99.90
14172;DHT22;7165;52.388;4.928;2023-05-29T00:18:34;11.00;99.90
14172;DHT22;7165;52.388;4.928;2023-05-29T00:21:01;10.90;99.90
14172;DHT22;7165;52.388;4.928;2023-05-29T00:23:28;10.90;99.90
14172;DHT22;7165;52.388;4.928;2023-05-29T00:25:54;10.90;99.90
14172;DHT22;7165;52.388;4.928;2023-05-29T00:28:22;10.90;99.90
14172;DHT22;7165;52.388;4.928;2023-05-29T00:30:49;10.80;99.90
14172;DHT22;7165;52.388;4.928;2023-05-29T00:33:15;10.80;99.90
14172;DHT22;7165;52.388;4.928;2023-05-29T00:35:43;10.80;99.90
14172;DHT22;7165;52.388;4.928;2023-05-29T00:38:10;10.80;99.90
14172;DHT22;7165;52.388;4.928;2023-05-29T00:40:36;10.80;99.90
14172;DHT22;7165;52.388;4.928;2023-05-29T00:43:03;10.80;99.90
14172;DHT22;7165;52.388;4.928;2023-05-29T00:45:31;10.70;99.90
14172;DHT22;7165;52.388;4.928;2023-05-29T00:48:01;10.70;99.90
14172;DHT22;7165;52.388;4.928;2023-05-29T00:50:28;10.70;99.90
14172;DHT22;7165;52.388;4.928;2023-05-29T00:52:55;10.70;99.90
14172;DHT22;7165;52.388;4.928;2023-05-29T00:55:21;10.70;99.90
14172;DHT22;7165;52.388;4.928;2023-05-29T00:57:48;10.70;99.90
14172;DHT22;7165;52.388;4.928;2023-05-29T01:00:15;10.60;99.90
14172;DHT22;7165;52.388;4.928;2023-05-29T01:02:44;10.60;99.90
14172;DHT22;7165;52.388;4.928;2023-05-29T01:05:11;10.70;99.90
14172;DHT22;7165;52.388;4.928;2023-05-29T01:07:38;10.70;99.90
14172;DHT22;7165;52.388;4.928;2023-05-29T01:10:04;10.70;99.90
14172;DHT22;7165;52.388;4.928;2023-05-29T01:12:33;10.70;99.90
14172;DHT22;7165;52.388;4.928;2023-05-29T01:15:10;10.80;99.90
14172;DHT22;7165;52.388;4.928;2023-05-29T01:17:43;10.80;99.90
14172;DHT22;7165;52.388;4.928;2023-05-29T01:20:18;10.80;99.90
14172;DHT22;7165;52.388;4.928;2023-05-29T01:22:54;10.80;99.90
14172;DHT22;7165;52.388;4.928;2023-05-29T01:25:29;10.80;99.90
14172;DHT22;7165;52.388;4.928;2023-05-29T01:27:58;10.80;99.90
14172;DHT22;7165;52.388;4.928;2023-05-29T01:30:26;10.80;99.90
14172;DHT22;7165;52.388;4.928;2023-05-29T01:32:54;10.80;99.90
14172;DHT22;7165;52.388;4.928;2023-05-29T01:35:21;10.80;99.90
14172;DHT22;7165;52.388;4.928;2023-05-29T01:37:47;10.80;99.90
14172;DHT22;7165;52.388;4.928;2023-05-29T01:40:14;10.80;99.90
14172;DHT22;7165;52.388;4.928;2023-05-29T01:42:40;10.90;99.90
14172;DHT22;7165;52.388;4.928;2023-05-29T01:45:09;10.80;99.90
14172;DHT22;7165;52.388;4.928;2023-05-29T01:47:36;10.80;99.90
14172;DHT22;7165;52.388;4.928;2023-05-29T01:50:03;10.90;99.90
14172;DHT22;7165;52.388;4.928;2023-05-29T01:52:31;10.90;99.90
14172;DHT22;7165;52.388;4.928;2023-05-29T01:54:58;10.90;99.90
14172;DHT22;7165;52.388;4.928;2023-05-29T01:57:24;10.90;99.90
14172;DHT22;7165;52.388;4.928;2023-05-29T01:59:51;10.90;99.90
14172;DHT22;7165;52.388;4.928;2023-05-29T02:02:21;10.90;99.90
14172;DHT22;7165;52.388;4.928;2023-05-29T02:04:47;10.90;99.90
14172;DHT22;7165;52.388;4.928;2023-05-29T02:07:14;10.90;99.90
14172;DHT22;7165;52.388;4.928;2023-05-29T02:09:41;11.00;99.90
14172;DHT22;7165;52.388;4.928;2023-05-29T02:12:08;10.90;99.90
14172;DHT22;7165;52.388;4.928;2023-05-29T02:14:34;10.90;99.90
14172;DHT22;7165;52.388;4.928;2023-05-29T02:17:02;11.00;99.90
14172;DHT22;7165;52.388;4.928;2023-05-29T02:19:31;10.90;99.90
14172;DHT22;7165;52.388;4.928;2023-05-29T02:21:57;10.90;99.90
14172;DHT22;7165;52.388;4.928;2023-05-29T02:24:24;10.90;99.90
14172;DHT22;7165;52.388;4.928;2023-05-29T02:26:50;10.90;99.90
14172;DHT22;7165;52.388;4.928;2023-05-29T02:29:17;10.80;99.90
14172;DHT22;7165;52.388;4.928;2023-05-29T02:31:43;10.80;99.90
14172;DHT22;7165;52.388;4.928;2023-05-29T02:34:10;10.70;99.90
14172;DHT22;7165;52.388;4.928;2023-05-29T02:36:38;10.70;99.90
14172;DHT22;7165;52.388;4.928;2023-05-29T02:39:05;10.60;99.90
14172;DHT22;7165;52.388;4.928;2023-05-29T02:41:31;10.60;99.90
14172;DHT22;7165;52.388;4.928;2023-05-29T02:43:58;10.60;99.90
14172;DHT22;7165;52.388;4.928;2023-05-29T02:46:25;10.60;99.90
14172;DHT22;7165;52.388;4.928;2023-05-29T02:48:51;10.50;99.90
14172;DHT22;7165;52.388;4.928;2023-05-29T02:51:18;10.50;99.90
14172;DHT22;7165;52.388;4.928;2023-05-29T02:53:45;10.40;99.90
14172;DHT22;7165;52.388;4.928;2023-05-29T02:56:13;10.40;99.90
14172;DHT22;7165;52.388;4.928;2023-05-29T02:58:41;10.50;99.90
14172;DHT22;7165;52.388;4.928;2023-05-29T03:01:07;10.40;99.90
14172;DHT22;7165;52.388;4.928;2023-05-29T03:03:34;10.50;99.90
14172;DHT22;7165;52.388;4.928;2023-05-29T03:06:03;10.50;99.90
14172;DHT22;7165;52.388;4.928;2023-05-29T03:08:29;10.50;99.90
14172;DHT22;7165;52.388;4.928;2023-05-29T03:10:57;10.40;99.90
14172;DHT22;7165;52.388;4.928;2023-05-29T03:13:24;10.40;99.90
14172;DHT22;7165;52.388;4.928;2023-05-29T03:15:50;10.40;99.90
14172;DHT22;7165;52.388;4.928;2023-05-29T03:18:21;10.40;99.90
14172;DHT22;7165;52.388;4.928;2023-05-29T03:20:48;10.40;99.90
14172;DHT22;7165;52.388;4.928;2023-05-29T03:23:14;10.40;99.90
14172;DHT22;7165;52.388;4.928;2023-05-29T03:25:42;10.40;99.90
14172;DHT22;7165;52.388;4.928;2023-05-29T03:28:10;10.40;99.90
14172;DHT22;7165;52.388;4.928;2023-05-29T03:30:36;10.40;99.90
14172;DHT22;7165;52.388;4.928;2023-05-29T03:33:03;10.40;99.90
14172;DHT22;7165;52.388;4.928;2023-05-29T03:35:30;10.40;99.90
14172;DHT22;7165;52.388;4.928;2023-05-29T03:37:56;10.30;99.90
14172;DHT22;7165;52.388;4.928;2023-05-29T03:40:23;10.30;99.90
14172;DHT22;7165;52.388;4.928;2023-05-29T03:42:50;10.30;99.90
14172;DHT22;7165;52.388;4.928;2023-05-29T03:45:18;10.30;99.90
14172;DHT22;7165;52.388;4.928;2023-05-29T03:47:45;10.30;99.90
14172;DHT22;7165;52.388;4.928;2023-05-29T03:50:11;10.30;99.90
14172;DHT22;7165;52.388;4.928;2023-05-29T03:52:40;10.30;99.90
14172;DHT22;7165;52.388;4.928;2023-05-29T03:55:08;10.30;99.90
14172;DHT22;7165;52.388;4.928;2023-05-29T03:57:38;10.30;99.90
14172;DHT22;7165;52.388;4.928;2023-05-29T04:00:06;10.30;99.90
14172;DHT22;7165;52.388;4.928;2023-05-29T04:02:34;10.30;99.90
14172;DHT22;7165;52.388;4.928;2023-05-29T04:05:01;10.30;99.90
14172;DHT22;7165;52.388;4.928;2023-05-29T04:07:27;10.30;99.90
14172;DHT22;7165;52.388;4.928;2023-05-29T04:09:54;10.40;99.90
14172;DHT22;7165;52.388;4.928;2023-05-29T04:12:21;10.40;99.90
14172;DHT22;7165;52.388;4.928;2023-05-29T04:14:47;10.50;99.90
14172;DHT22;7165;52.388;4.928;2023-05-29T04:17:14;10.50;99.90
14172;DHT22;7165;52.388;4.928;2023-05-29T04:19:41;10.50;99.90
14172;DHT22;7165;52.388;4.928;2023-05-29T04:22:08;10.60;99.90
14172;DHT22;7165;52.388;4.928;2023-05-29T04:24:35;10.60;99.90
14172;DHT22;7165;52.388;4.928;2023-05-29T04:27:02;10.60;99.90
14172;DHT22;7165;52.388;4.928;2023-05-29T04:29:28;10.60;99.90
14172;DHT22;7165;52.388;4.928;2023-05-29T04:31:55;10.60;99.90
14172;DHT22;7165;52.388;4.928;2023-05-29T04:34:23;10.60;99.90
14172;DHT22;7165;52.388;4.928;2023-05-29T04:36:51;10.60;99.90
14172;DHT22;7165;52.388;4.928;2023-05-29T04:39:17;10.60;99.90
14172;DHT22;7165;52.388;4.928;2023-05-29T04:41:44;10.70;99.90
14172;DHT22;7165;52.388;4.928;2023-05-29T04:44:10;10.70;99.90
14172;DHT22;7165;52.388;4.928;2023-05-29T04:46:37;10.80;99.90
14172;DHT22;7165;52.388;4.928;2023-05-29T04:49:03;10.80;99.90
14172;DHT22;7165;52.388;4.928;2023-05-29T04:51:30;10.80;99.90
14172;DHT22;7165;52.388;4.928;2023-05-29T04:53:58;10.90;99.90
14172;DHT22;7165;52.388;4.928;2023-05-29T04:56:24;10.90;99.90
14172;DHT22;7165;52.388;4.928;2023-05-29T04:58:52;11.00;99.90
14172;DHT22;7165;52.388;4.928;2023-05-29T05:01:18;11.00;99.90
14172;DHT22;7165;52.388;4.928;2023-05-29T05:03:45;11.10;99.90
14172;DHT22;7165;52.388;4.928;2023-05-29T05:06:11;11.10;99.90
14172;DHT22;7165;52.388;4.928;2023-05-29T05:08:38;11.10;99.90
14172;DHT22;7165;52.388;4.928;2023-05-29T05:11:06;11.20;99.90
14172;DHT22;7165;52.388;4.928;2023-05-29T05:13:32;11.20;99.90
14172;DHT22;7165;52.388;4.928;2023-05-29T05:15:59;11.20;99.90
14172;DHT22;7165;52.388;4.928;2023-05-29T05:18:26;11.30;99.90
14172;DHT22;7165;52.388;4.928;2023-05-29T05:20:52;11.30;99.90
14172;DHT22;7165;52.388;4.928;2023-05-29T05:23:19;11.30;99.90
14172;DHT22;7165;52.388;4.928;2023-05-29T05:25:45;11.40;99.90
14172;DHT22;7165;52.388;4.928;2023-05-29T05:28:13;11.40;99.90
14172;DHT22;7165;52.388;4.928;2023-05-29T05:30:40;11.50;99.90
14172;DHT22;7165;52.388;4.928;2023-05-29T05:33:06;11.60;99.90
14172;DHT22;7165;52.388;4.928;2023-05-29T05:35:33;11.60;99.90
14172;DHT22;7165;52.388;4.928;2023-05-29T05:38:00;11.60;99.90
14172;DHT22;7165;52.388;4.928;2023-05-29T05:40:26;11.60;99.90
14172;DHT22;7165;52.388;4.928;2023-05-29T05:42:53;11.60;99.90
14172;DHT22;7165;52.388;4.928;2023-05-29T05:45:21;11.70;99.90
14172;DHT22;7165;52.388;4.928;2023-05-29T05:47:49;11.70;99.90
14172;DHT22;7165;52.388;4.928;2023-05-29T05:50:16;11.80;99.90
14172;DHT22;7165;52.388;4.928;2023-05-29T05:52:42;11.80;99.90
14172;DHT22;7165;52.388;4.928;2023-05-29T05:55:10;11.90;99.90
14172;DHT22;7165;52.388;4.928;2023-05-29T05:57:37;12.00;99.90
14172;DHT22;7165;52.388;4.928;2023-05-29T06:00:04;12.20;99.90
14172;DHT22;7165;52.388;4.928;2023-05-29T06:02:34;12.40;99.90
14172;DHT22;7165;52.388;4.928;2023-05-29T06:05:00;12.50;99.90
14172;DHT22;7165;52.388;4.928;2023-05-29T06:07:27;12.60;99.90
14172;DHT22;7165;52.388;4.928;2023-05-29T06:09:53;12.50;99.90
14172;DHT22;7165;52.388;4.928;2023-05-29T06:12:20;12.50;99.90
14172;DHT22;7165;52.388;4.928;2023-05-29T06:14:47;12.40;99.90
14172;DHT22;7165;52.388;4.928;2023-05-29T06:17:13;12.40;99.90
14172;DHT22;7165;52.388;4.928;2023-05-29T06:19:41;12.40;99.90
14172;DHT22;7165;52.388;4.928;2023-05-29T06:22:08;12.40;99.90
14172;DHT22;7165;52.388;4.928;2023-05-29T06:24:34;12.40;99.90
14172;DHT22;7165;52.388;4.928;2023-05-29T06:27:01;12.40;99.90
14172;DHT22;7165;52.388;4.928;2023-05-29T06:29:27;12.40;99.90
14172;DHT22;7165;52.388;4.928;2023-05-29T06:31:54;12.40;99.90
14172;DHT22;7165;52.388;4.928;2023-05-29T06:34:20;12.50;99.90
14172;DHT22;7165;52.388;4.928;2023-05-29T06:36:48;12.60;99.90
14172;DHT22;7165;52.388;4.928;2023-05-29T06:39:15;12.60;99.90
14172;DHT22;7165;52.388;4.928;2023-05-29T06:41:43;12.70;99.90
14172;DHT22;7165;52.388;4.928;2023-05-29T06:44:09;12.70;99.90
14172;DHT22;7165;52.388;4.928;2023-05-29T06:46:36;12.70;99.90
14172;DHT22;7165;52.388;4.928;2023-05-29T06:49:02;12.70;99.90
14172;DHT22;7165;52.388;4.928;2023-05-29T06:51:29;12.80;99.90
14172;DHT22;7165;52.388;4.928;2023-05-29T06:53:59;12.80;99.90
14172;DHT22;7165;52.388;4.928;2023-05-29T06:56:25;12.90;99.90
14172;DHT22;7165;52.388;4.928;2023-05-29T06:58:52;13.10;99.90
14172;DHT22;7165;52.388;4.928;2023-05-29T07:01:19;13.30;99.90
14172;DHT22;7165;52.388;4.928;2023-05-29T07:03:46;13.60;99.90
14172;DHT22;7165;52.388;4.928;2023-05-29T07:06:19;13.80;99.90
14172;DHT22;7165;52.388;4.928;2023-05-29T07:08:46;14.00;99.90
14172;DHT22;7165;52.388;4.928;2023-05-29T07:11:14;14.10;99.90
14172;DHT22;7165;52.388;4.928;2023-05-29T07:13:40;14.10;99.90
14172;DHT22;7165;52.388;4.928;2023-05-29T07:16:07;14.00;99.90
14172;DHT22;7165;52.388;4.928;2023-05-29T07:18:33;13.70;99.90
14172;DHT22;7165;52.388;4.928;2023-05-29T07:21:00;13.60;99.90
14172;DHT22;7165;52.388;4.928;2023-05-29T07:23:27;13.50;99.90
14172;DHT22;7165;52.388;4.928;2023-05-29T07:25:53;13.40;99.90
14172;DHT22;7165;52.388;4.928;2023-05-29T07:28:21;13.20;99.90
14172;DHT22;7165;52.388;4.928;2023-05-29T07:30:48;13.10;99.90
14172;DHT22;7165;52.388;4.928;2023-05-29T07:33:14;13.20;99.90
14172;DHT22;7165;52.388;4.928;2023-05-29T07:35:41;13.30;99.90
14172;DHT22;7165;52.388;4.928;2023-05-29T07:38:08;13.50;99.90
14172;DHT22;7165;52.388;4.928;2023-05-29T07:40:34;13.80;99.90
14172;DHT22;7165;52.388;4.928;2023-05-29T07:43:01;14.00;99.90
14172;DHT22;7165;52.388;4.928;2023-05-29T07:45:29;14.00;99.90
14172;DHT22;7165;52.388;4.928;2023-05-29T07:47:55;13.90;99.90
14172;DHT22;7165;52.388;4.928;2023-05-29T07:50:22;13.80;99.90
14172;DHT22;7165;52.388;4.928;2023-05-29T07:52:48;13.80;99.90
14172;DHT22;7165;52.388;4.928;2023-05-29T07:55:15;13.80;99.90
14172;DHT22;7165;52.388;4.928;2023-05-29T07:57:42;13.90;99.90
14172;DHT22;7165;52.388;4.928;2023-05-29T08:00:09;13.90;99.90
14172;DHT22;7165;52.388;4.928;2023-05-29T08:02:39;13.90;99.90
14172;DHT22;7165;52.388;4.928;2023-05-29T08:05:05;13.90;99.90
14172;DHT22;7165;52.388;4.928;2023-05-29T08:07:34;14.10;99.90
14172;DHT22;7165;52.388;4.928;2023-05-29T08:10:00;14.20;99.90
14172;DHT22;7165;52.388;4.928;2023-05-29T08:12:27;14.40;99.90
14172;DHT22;7165;52.388;4.928;2023-05-29T08:14:54;14.60;99.90
14172;DHT22;7165;52.388;4.928;2023-05-29T08:17:20;14.80;99.90
14172;DHT22;7165;52.388;4.928;2023-05-29T08:19:48;15.00;99.90
14172;DHT22;7165;52.388;4.928;2023-05-29T08:22:15;15.20;99.90
14172;DHT22;7165;52.388;4.928;2023-05-29T08:24:41;15.30;99.90
14172;DHT22;7165;52.388;4.928;2023-05-29T08:27:08;15.50;99.90
14172;DHT22;7165;52.388;4.928;2023-05-29T08:29:35;15.50;99.90
14172;DHT22;7165;52.388;4.928;2023-05-29T08:32:02;15.70;99.90
14172;DHT22;7165;52.388;4.928;2023-05-29T08:34:28;15.70;99.90
14172;DHT22;7165;52.388;4.928;2023-05-29T08:36:57;15.60;99.90
14172;DHT22;7165;52.388;4.928;2023-05-29T08:39:23;15.30;99.90
14172;DHT22;7165;52.388;4.928;2023-05-29T08:41:51;15.40;99.90
14172;DHT22;7165;52.388;4.928;2023-05-29T08:44:21;15.60;99.90
14172;DHT22;7165;52.388;4.928;2023-05-29T08:46:48;15.80;99.90
14172;DHT22;7165;52.388;4.928;2023-05-29T08:49:16;15.90;99.90
14172;DHT22;7165;52.388;4.928;2023-05-29T08:51:43;15.90;99.90
14172;DHT22;7165;52.388;4.928;2023-05-29T08:54:17;15.90;99.90
14172;DHT22;7165;52.388;4.928;2023-05-29T08:56:43;16.00;99.90
14172;DHT22;7165;52.388;4.928;2023-05-29T08:59:10;16.10;99.90
14172;DHT22;7165;52.388;4.928;2023-05-29T09:01:37;16.00;99.90
14172;DHT22;7165;52.388;4.928;2023-05-29T09:04:04;16.10;99.90
14172;DHT22;7165;52.388;4.928;2023-05-29T09:06:30;16.30;99.90
14172;DHT22;7165;52.388;4.928;2023-05-29T09:08:57;16.40;99.90
14172;DHT22;7165;52.388;4.928;2023-05-29T09:11:25;16.30;99.90
14172;DHT22;7165;52.388;4.928;2023-05-29T09:13:52;16.10;99.90
14172;DHT22;7165;52.388;4.928;2023-05-29T09:16:18;16.10;99.90
14172;DHT22;7165;52.388;4.928;2023-05-29T09:18:45;16.30;99.90
14172;DHT22;7165;52.388;4.928;2023-05-29T09:21:17;16.40;99.90
14172;DHT22;7165;52.388;4.928;2023-05-29T09:23:51;16.70;99.90
14172;DHT22;7165;52.388;4.928;2023-05-29T09:26:18;16.60;99.90
14172;DHT22;7165;52.388;4.928;2023-05-29T09:28:48;16.60;99.90
14172;DHT22;7165;52.388;4.928;2023-05-29T09:31:15;16.60;99.90
14172;DHT22;7165;52.388;4.928;2023-05-29T09:33:46;16.60;99.90
14172;DHT22;7165;52.388;4.928;2023-05-29T09:36:19;16.80;99.90
14172;DHT22;7165;52.388;4.928;2023-05-29T09:38:46;17.00;99.90
14172;DHT22;7165;52.388;4.928;2023-05-29T09:41:12;17.20;99.90
14172;DHT22;7165;52.388;4.928;2023-05-29T09:43:39;17.30;99.90
14172;DHT22;7165;52.388;4.928;2023-05-29T09:46:07;17.60;99.90
14172;DHT22;7165;52.388;4.928;2023-05-29T09:48:34;17.90;99.90
14172;DHT22;7165;52.388;4.928;2023-05-29T09:51:01;18.10;99.90
14172;DHT22;7165;52.388;4.928;2023-05-29T09:53:29;18.10;99.90
14172;DHT22;7165;52.388;4.928;2023-05-29T09:55:56;18.10;99.90
14172;DHT22;7165;52.388;4.928;2023-05-29T09:58:24;17.80;99.90
14172;DHT22;7165;52.388;4.928;2023-05-29T10:00:52;17.70;99.90
14172;DHT22;7165;52.388;4.928;2023-05-29T10:03:20;17.60;99.90
14172;DHT22;7165;52.388;4.928;2023-05-29T10:05:48;17.50;99.90
14172;DHT22;7165;52.388;4.928;2023-05-29T10:08:17;17.50;99.90
14172;DHT22;7165;52.388;4.928;2023-05-29T10:10:46;17.40;99.90
14172;DHT22;7165;52.388;4.928;2023-05-29T10:13:13;17.30;99.90
14172;DHT22;7165;52.388;4.928;2023-05-29T10:15:43;17.30;99.90
14172;DHT22;7165;52.388;4.928;2023-05-29T10:18:11;17.40;99.90
14172;DHT22;7165;52.388;4.928;2023-05-29T10:20:41;17.40;99.90
14172;DHT22;7165;52.388;4.928;2023-05-29T10:23:09;17.60;99.90
14172;DHT22;7165;52.388;4.928;2023-05-29T10:25:36;17.80;99.90
14172;DHT22;7165;52.388;4.928;2023-05-29T10:28:03;17.90;99.90
14172;DHT22;7165;52.388;4.928;2023-05-29T10:30:34;18.00;99.90
14172;DHT22;7165;52.388;4.928;2023-05-29T10:35:46;17.80;99.90
14172;DHT22;7165;52.388;4.928;2023-05-29T10:38:13;17.80;99.90
14172;DHT22;7165;52.388;4.928;2023-05-29T10:40:42;17.90;99.90
14172;DHT22;7165;52.388;4.928;2023-05-29T10:43:08;18.10;99.90
14172;DHT22;7165;52.388;4.928;2023-05-29T10:45:48;18.00;99.90
14172;DHT22;7165;52.388;4.928;2023-05-29T10:51:04;18.20;99.90
14172;DHT22;7165;52.388;4.928;2023-05-29T10:53:32;18.20;99.90
14172;DHT22;7165;52.388;4.928;2023-05-29T10:55:58;18.10;99.90
14172;DHT22;7165;52.388;4.928;2023-05-29T10:58:26;18.20;99.90
14172;DHT22;7165;52.388;4.928;2023-05-29T11:00:53;18.20;99.90
14172;DHT22;7165;52.388;4.928;2023-05-29T11:03:22;18.30;99.90
14172;DHT22;7165;52.388;4.928;2023-05-29T11:05:58;18.20;99.90
14172;DHT22;7165;52.388;4.928;2023-05-29T11:08:29;18.20;99.90
14172;DHT22;7165;52.388;4.928;2023-05-29T11:10:59;18.60;99.90
14172;DHT22;7165;52.388;4.928;2023-05-29T11:13:26;18.50;99.90
14172;DHT22;7165;52.388;4.928;2023-05-29T11:16:09;18.70;99.90
14172;DHT22;7165;52.388;4.928;2023-05-29T11:18:38;18.90;99.90
14172;DHT22;7165;52.388;4.928;2023-05-29T11:21:05;19.10;99.90
14172;DHT22;7165;52.388;4.928;2023-05-29T11:23:36;19.20;99.90
14172;DHT22;7165;52.388;4.928;2023-05-29T11:26:06;19.20;99.90
14172;DHT22;7165;52.388;4.928;2023-05-29T11:28:33;19.20;99.90
14172;DHT22;7165;52.388;4.928;2023-05-29T11:30:59;19.20;99.90
14172;DHT22;7165;52.388;4.928;2023-05-29T11:33:29;19.20;99.90
14172;DHT22;7165;52.388;4.928;2023-05-29T11:35:58;19.00;99.90
14172;DHT22;7165;52.388;4.928;2023-05-29T11:38:25;19.00;99.90
14172;DHT22;7165;52.388;4.928;2023-05-29T11:40:53;19.00;99.90
14172;DHT22;7165;52.388;4.928;2023-05-29T11:43:20;18.80;99.90
14172;DHT22;7165;52.388;4.928;2023-05-29T11:45:47;18.70;99.90
14172;DHT22;7165;52.388;4.928;2023-05-29T11:48:13;18.60;99.90
14172;DHT22;7165;52.388;4.928;2023-05-29T11:50:40;18.40;99.90
14172;DHT22;7165;52.388;4.928;2023-05-29T11:53:12;18.30;99.90
14172;DHT22;7165;52.388;4.928;2023-05-29T11:55:40;18.20;99.90
14172;DHT22;7165;52.388;4.928;2023-05-29T11:58:08;18.40;99.90
14172;DHT22;7165;52.388;4.928;2023-05-29T12:00:35;18.20;99.90
14172;DHT22;7165;52.388;4.928;2023-05-29T12:03:02;18.20;99.90
14172;DHT22;7165;52.388;4.928;2023-05-29T12:05:30;18.10;99.90
14172;DHT22;7165;52.388;4.928;2023-05-29T12:07:57;18.00;99.90
14172;DHT22;7165;52.388;4.928;2023-05-29T12:10:26;17.90;99.90
14172;DHT22;7165;52.388;4.928;2023-05-29T12:12:53;17.90;99.90
14172;DHT22;7165;52.388;4.928;2023-05-29T12:15:21;18.10;99.90
14172;DHT22;7165;52.388;4.928;2023-05-29T12:17:48;18.30;99.90
14172;DHT22;7165;52.388;4.928;2023-05-29T12:20:16;18.40;99.90
14172;DHT22;7165;52.388;4.928;2023-05-29T12:22:43;18.50;99.90
14172;DHT22;7165;52.388;4.928;2023-05-29T12:25:11;18.60;99.90
14172;DHT22;7165;52.388;4.928;2023-05-29T12:27:38;18.60;99.90
14172;DHT22;7165;52.388;4.928;2023-05-29T12:30:08;18.60;99.90
14172;DHT22;7165;52.388;4.928;2023-05-29T12:32:37;18.60;99.90
14172;DHT22;7165;52.388;4.928;2023-05-29T12:35:11;18.70;99.90
14172;DHT22;7165;52.388;4.928;2023-05-29T12:37:42;18.80;99.90
14172;DHT22;7165;52.388;4.928;2023-05-29T12:40:09;18.80;99.90
14172;DHT22;7165;52.388;4.928;2023-05-29T12:42:37;18.80;99.90
14172;DHT22;7165;52.388;4.928;2023-05-29T12:45:04;19.00;99.90
14172;DHT22;7165;52.388;4.928;2023-05-29T12:47:32;19.10;99.90
14172;DHT22;7165;52.388;4.928;2023-05-29T12:50:00;19.10;99.90
14172;DHT22;7165;52.388;4.928;2023-05-29T12:52:30;19.00;99.90
14172;DHT22;7165;52.388;4.928;2023-05-29T12:54:56;18.80;99.90
14172;DHT22;7165;52.388;4.928;2023-05-29T12:57:23;18.70;99.90
14172;DHT22;7165;52.388;4.928;2023-05-29T12:59:50;18.60;99.90
14172;DHT22;7165;52.388;4.928;2023-05-29T13:02:16;18.70;99.90
14172;DHT22;7165;52.388;4.928;2023-05-29T13:04:43;18.70;99.90
14172;DHT22;7165;52.388;4.928;2023-05-29T13:07:11;18.70;99.90
14172;DHT22;7165;52.388;4.928;2023-05-29T13:09:37;18.70;99.90
14172;DHT22;7165;52.388;4.928;2023-05-29T13:12:04;18.80;99.90
14172;DHT22;7165;52.388;4.928;2023-05-29T13:14:31;19.00;99.90
14172;DHT22;7165;52.388;4.928;2023-05-29T13:16:57;19.10;99.90
14172;DHT22;7165;52.388;4.928;2023-05-29T13:19:24;19.20;99.90
14172;DHT22;7165;52.388;4.928;2023-05-29T13:21:50;19.20;99.90
14172;DHT22;7165;52.388;4.928;2023-05-29T13:24:18;19.00;99.90
14172;DHT22;7165;52.388;4.928;2023-05-29T13:26:45;19.10;99.90
14172;DHT22;7165;52.388;4.928;2023-05-29T13:29:11;19.00;99.90
14172;DHT22;7165;52.388;4.928;2023-05-29T13:31:38;18.90;99.90
14172;DHT22;7165;52.388;4.928;2023-05-29T13:34:04;18.80;99.90
14172;DHT22;7165;52.388;4.928;2023-05-29T13:36:31;18.60;99.90
14172;DHT22;7165;52.388;4.928;2023-05-29T13:38:57;18.50;99.90
14172;DHT22;7165;52.388;4.928;2023-05-29T13:41:25;18.50;99.90
14172;DHT22;7165;52.388;4.928;2023-05-29T13:43:52;18.60;99.90
14172;DHT22;7165;52.388;4.928;2023-05-29T13:46:18;18.90;99.90
14172;DHT22;7165;52.388;4.928;2023-05-29T13:48:45;19.00;99.90
14172;DHT22;7165;52.388;4.928;2023-05-29T13:51:12;19.10;99.90
14172;DHT22;7165;52.388;4.928;2023-05-29T13:53:38;19.40;99.90
14172;DHT22;7165;52.388;4.928;2023-05-29T13:56:05;19.70;99.90
14172;DHT22;7165;52.388;4.928;2023-05-29T13:58:33;19.80;99.90
14172;DHT22;7165;52.388;4.928;2023-05-29T14:00:59;19.80;99.90
14172;DHT22;7165;52.388;4.928;2023-05-29T14:03:26;19.30;99.90
14172;DHT22;7165;52.388;4.928;2023-05-29T14:05:54;19.40;99.90
14172;DHT22;7165;52.388;4.928;2023-05-29T14:08:20;19.30;99.90
14172;DHT22;7165;52.388;4.928;2023-05-29T14:10:47;19.50;99.90
14172;DHT22;7165;52.388;4.928;2023-05-29T14:13:13;19.50;99.90
14172;DHT22;7165;52.388;4.928;2023-05-29T14:15:41;19.40;99.90
14172;DHT22;7165;52.388;4.928;2023-05-29T14:18:08;19.20;99.90
14172;DHT22;7165;52.388;4.928;2023-05-29T14:20:34;19.00;99.90
14172;DHT22;7165;52.388;4.928;2023-05-29T14:23:01;19.10;99.90
14172;DHT22;7165;52.388;4.928;2023-05-29T14:25:28;19.40;99.90
14172;DHT22;7165;52.388;4.928;2023-05-29T14:27:54;19.50;99.90
14172;DHT22;7165;52.388;4.928;2023-05-29T14:30:21;19.60;99.90
14172;DHT22;7165;52.388;4.928;2023-05-29T14:32:49;19.60;99.90
14172;DHT22;7165;52.388;4.928;2023-05-29T14:35:15;19.70;99.90
14172;DHT22;7165;52.388;4.928;2023-05-29T14:37:42;19.80;99.90
14172;DHT22;7165;52.388;4.928;2023-05-29T14:40:09;19.90;99.90
14172;DHT22;7165;52.388;4.928;2023-05-29T14:42:35;19.90;99.90
14172;DHT22;7165;52.388;4.928;2023-05-29T14:45:02;19.80;99.90
14172;DHT22;7165;52.388;4.928;2023-05-29T14:47:29;19.80;99.90
14172;DHT22;7165;52.388;4.928;2023-05-29T14:49:56;19.70;99.90
14172;DHT22;7165;52.388;4.928;2023-05-29T14:52:23;19.70;99.90
14172;DHT22;7165;52.388;4.928;2023-05-29T14:54:50;19.70;99.90
14172;DHT22;7165;52.388;4.928;2023-05-29T14:57:16;20.00;99.90
14172;DHT22;7165;52.388;4.928;2023-05-29T14:59:43;20.20;99.90
14172;DHT22;7165;52.388;4.928;2023-05-29T15:02:09;20.30;99.90
14172;DHT22;7165;52.388;4.928;2023-05-29T15:04:36;20.40;99.90
14172;DHT22;7165;52.388;4.928;2023-05-29T15:07:04;20.60;99.90
14172;DHT22;7165;52.388;4.928;2023-05-29T15:09:31;21.00;99.90
14172;DHT22;7165;52.388;4.928;2023-05-29T15:11:58;21.40;99.90
14172;DHT22;7165;52.388;4.928;2023-05-29T15:14:25;22.20;99.90
14172;DHT22;7165;52.388;4.928;2023-05-29T15:16:51;23.50;99.90
14172;DHT22;7165;52.388;4.928;2023-05-29T15:19:18;24.30;99.90
14172;DHT22;7165;52.388;4.928;2023-05-29T15:21:45;25.20;98.60
14172;DHT22;7165;52.388;4.928;2023-05-29T15:24:13;25.60;97.50
14172;DHT22;7165;52.388;4.928;2023-05-29T15:26:39;26.30;95.50
14172;DHT22;7165;52.388;4.928;2023-05-29T15:29:06;26.70;95.10
14172;DHT22;7165;52.388;4.928;2023-05-29T15:31:32;27.10;93.80
14172;DHT22;7165;52.388;4.928;2023-05-29T15:33:59;26.90;92.40
14172;DHT22;7165;52.388;4.928;2023-05-29T15:36:25;27.10;92.00
14172;DHT22;7165;52.388;4.928;2023-05-29T15:38:53;27.00;92.60
14172;DHT22;7165;52.388;4.928;2023-05-29T15:41:20;27.10;92.40
14172;DHT22;7165;52.388;4.928;2023-05-29T15:43:53;27.00;92.00
14172;DHT22;7165;52.388;4.928;2023-05-29T15:46:20;26.30;92.60
14172;DHT22;7165;52.388;4.928;2023-05-29T15:48:46;25.80;92.60
14172;DHT22;7165;52.388;4.928;2023-05-29T15:51:13;25.50;92.60